Time;durP1;ratioP1;P1;durP2;ratioP2;P2;SDS_P1;SDS_P2;PMS_P1;PMS_P2;Temp;Humidity;BMP_temperature;BMP_pressure;BME280_temperature;BME280_humidity;BME280_pressure;Samples;Min_cycle;Max_cycle;Signal;HPM_P1;HPM_P2
2024/02/19 00:02:06;;;;;;;40.20;21.27;;;;;;;;;;5039543;28;20036;-90
2024/02/19 00:04:32;;;;;;;35.33;18.67;;;;;;;;;;5018998;28;20037;-90
2024/02/19 00:06:58;;;;;;;30.88;18.02;;;;;;;;;;5018743;28;20021;-90
2024/02/19 00:09:24;;;;;;;36.78;20.05;;;;;;;;;;5018492;28;20036;-90
2024/02/19 00:11:50;;;;;;;36.35;19.67;;;;;;;;;;5018866;28;20025;-92
2024/02/19 00:14:16;;;;;;;35.80;20.13;;;;;;;;;;5018349;28;20033;-91
2024/02/19 00:16:42;;;;;;;32.38;19.02;;;;;;;;;;5018319;28;20052;-90
2024/02/19 00:19:08;;;;;;;37.15;19.55;;;;;;;;;;5018310;28;20025;-91
2024/02/19 00:21:35;;;;;;;34.10;19.08;;;;;;;;;;5018382;28;20060;-91
2024/02/19 00:24:01;;;;;;;35.45;19.58;;;;;;;;;;5036494;28;20029;-91
2024/02/19 00:26:27;;;;;;;31.67;17.98;;;;;;;;;;5018367;28;20026;-91
2024/02/19 00:28:53;;;;;;;31.10;17.55;;;;;;;;;;5018424;28;20074;-90
2024/02/19 00:31:20;;;;;;;36.92;19.15;;;;;;;;;;5018241;28;20045;-91
2024/02/19 00:33:47;;;;;;;35.67;20.48;;;;;;;;;;5018326;28;20030;-91
2024/02/19 00:36:13;;;;;;;33.05;19.20;;;;;;;;;;5018324;28;20116;-91
2024/02/19 00:38:39;;;;;;;33.17;18.08;;;;;;;;;;5018546;28;20474;-91
2024/02/19 00:41:05;;;;;;;32.40;17.63;;;;;;;;;;5018045;28;20068;-90
2024/02/19 00:43:32;;;;;;;36.72;20.58;;;;;;;;;;5035809;28;20478;-90
2024/02/19 00:45:58;;;;;;;45.55;22.70;;;;;;;;;;5017839;28;20025;-90
2024/02/19 00:48:25;;;;;;;47.80;23.80;;;;;;;;;;5022251;28;20094;-92
2024/02/19 00:50:51;;;;;;;44.22;23.60;;;;;;;;;;5037636;28;20385;-91
2024/02/19 00:53:17;;;;;;;44.75;22.55;;;;;;;;;;5037646;28;20021;-91
2024/02/19 00:55:43;;;;;;;43.92;20.48;;;;;;;;;;5037338;28;20130;-91
2024/02/19 00:58:09;;;;;;;45.75;22.17;;;;;;;;;;5036744;28;20118;-90
2024/02/19 01:00:36;;;;;;;45.42;22.42;;;;;;;;;;5037720;28;20473;-90
2024/02/19 01:03:03;;;;;;;51.45;24.85;;;;;;;;;;5037850;28;20027;-91
2024/02/19 01:05:32;;;;;;;39.10;20.35;;;;;;;;;;5029023;28;20083;-91
2024/02/19 01:07:58;;;;;;;41.13;22.00;;;;;;;;;;5037760;28;20136;-90
2024/02/19 01:10:24;;;;;;;37.70;20.65;;;;;;;;;;5037205;28;20568;-91
2024/02/19 01:12:50;;;;;;;40.05;21.10;;;;;;;;;;5037270;28;20021;-90
2024/02/19 01:15:17;;;;;;;42.13;20.58;;;;;;;;;;5037118;28;20040;-91
2024/02/19 01:17:44;;;;;;;39.08;20.77;;;;;;;;;;5037057;28;20389;-91
2024/02/19 01:20:10;;;;;;;39.63;21.55;;;;;;;;;;5037595;28;20029;-90
2024/02/19 01:22:36;;;;;;;30.75;18.38;;;;;;;;;;5037289;28;20020;-89
2024/02/19 01:25:02;;;;;;;39.63;19.65;;;;;;;;;;5036860;28;20039;-89
2024/02/19 01:27:28;;;;;;;31.45;18.70;;;;;;;;;;5054817;28;20017;-89
2024/02/19 01:29:55;;;;;;;30.20;17.08;;;;;;;;;;5037150;28;20032;-89
2024/02/19 01:32:22;;;;;;;33.22;17.10;;;;;;;;;;5037797;28;20377;-89
2024/02/19 01:34:48;;;;;;;28.23;16.17;;;;;;;;;;5037289;28;20033;-89
2024/02/19 01:37:14;;;;;;;31.60;17.88;;;;;;;;;;5047455;28;20028;-88
2024/02/19 01:39:40;;;;;;;33.88;18.50;;;;;;;;;;5047406;28;20094;-89
2024/02/19 01:42:06;;;;;;;34.80;19.23;;;;;;;;;;5035173;28;20048;-88
2024/02/19 01:44:32;;;;;;;36.15;20.52;;;;;;;;;;5017083;28;20025;-89
2024/02/19 01:46:58;;;;;;;36.75;20.15;;;;;;;;;;5016646;28;20032;-89
2024/02/19 01:49:25;;;;;;;37.30;20.13;;;;;;;;;;5017047;28;20474;-89
2024/02/19 01:51:51;;;;;;;43.95;20.33;;;;;;;;;;5016554;28;20057;-89
2024/02/19 01:54:18;;;;;;;41.05;19.02;;;;;;;;;;5035975;28;20599;-90
2024/02/19 01:56:44;;;;;;;37.17;18.80;;;;;;;;;;5036547;28;20068;-89
2024/02/19 01:59:11;;;;;;;30.20;17.13;;;;;;;;;;5036697;28;20025;-89
2024/02/19 02:01:40;;;;;;;37.88;22.52;;;;;;;;;;5036656;28;20025;-89
2024/02/19 02:04:08;;;;;;;44.15;22.73;;;;;;;;;;5036496;28;20067;-90
2024/02/19 02:06:35;;;;;;;47.70;23.98;;;;;;;;;;5036966;28;20037;-88
2024/02/19 02:09:02;;;;;;;45.75;23.85;;;;;;;;;;5037080;28;20021;-90
2024/02/19 02:11:28;;;;;;;39.63;22.95;;;;;;;;;;5036264;28;20041;-89
2024/02/19 02:13:54;;;;;;;42.83;22.55;;;;;;;;;;5036973;28;20048;-89
2024/02/19 02:16:25;;;;;;;42.72;23.08;;;;;;;;;;5036726;28;20122;-89
2024/02/19 02:18:51;;;;;;;44.67;21.83;;;;;;;;;;5036749;28;20029;-89
2024/02/19 02:21:17;;;;;;;37.10;20.20;;;;;;;;;;5036437;28;20522;-90
2024/02/19 02:23:43;;;;;;;39.72;20.30;;;;;;;;;;5025741;28;20482;-89
2024/02/19 02:26:09;;;;;;;37.47;20.98;;;;;;;;;;5016547;28;20087;-89
2024/02/19 02:28:35;;;;;;;42.17;20.95;;;;;;;;;;5016666;28;20450;-89
2024/02/19 02:31:02;;;;;;;39.33;20.33;;;;;;;;;;5028653;28;20033;-89
2024/02/19 02:33:28;;;;;;;37.67;20.77;;;;;;;;;;5036790;28;20024;-89
2024/02/19 02:35:54;;;;;;;43.05;21.13;;;;;;;;;;5035989;28;20041;-89
2024/02/19 02:38:20;;;;;;;37.78;19.45;;;;;;;;;;5028084;28;20432;-90
2024/02/19 02:40:46;;;;;;;41.58;20.45;;;;;;;;;;5036047;28;20021;-90
2024/02/19 02:43:12;;;;;;;36.67;20.13;;;;;;;;;;5035887;28;20482;-90
2024/02/19 02:45:38;;;;;;;32.67;18.02;;;;;;;;;;5036256;28;20092;-89
2024/02/19 02:48:04;;;;;;;40.65;20.95;;;;;;;;;;5035869;28;20024;-90
2024/02/19 02:50:30;;;;;;;41.78;21.35;;;;;;;;;;5026653;28;20053;-90
2024/02/19 02:52:57;;;;;;;39.05;20.08;;;;;;;;;;5016555;28;20029;-89
2024/02/19 02:55:23;;;;;;;34.20;18.75;;;;;;;;;;5016517;28;20111;-90
2024/02/19 02:57:49;;;;;;;40.25;20.92;;;;;;;;;;5016557;28;20029;-90
2024/02/19 03:00:15;;;;;;;41.50;20.65;;;;;;;;;;5016405;28;20031;-90
2024/02/19 03:02:41;;;;;;;38.35;20.55;;;;;;;;;;5016462;28;20029;-90
2024/02/19 03:05:07;;;;;;;40.97;20.77;;;;;;;;;;5016029;28;20034;-90
2024/02/19 03:07:33;;;;;;;43.60;21.75;;;;;;;;;;5016272;28;20025;-89
2024/02/19 03:10:00;;;;;;;44.13;21.83;;;;;;;;;;5016024;28;20029;-89
2024/02/19 03:12:27;;;;;;;52.15;22.05;;;;;;;;;;5034182;28;20032;-90
2024/02/19 03:14:54;;;;;;;44.88;23.10;;;;;;;;;;5036165;28;20558;-91
2024/02/19 03:17:20;;;;;;;43.75;21.52;;;;;;;;;;5024362;28;20079;-89
2024/02/19 03:19:46;;;;;;;42.30;21.58;;;;;;;;;;5035253;28;20060;-87
2024/02/19 03:22:13;;;;;;;46.13;21.48;;;;;;;;;;5055882;28;20010;-89
2024/02/19 03:24:40;;;;;;;49.85;21.90;;;;;;;;;;5026493;28;20483;-90
2024/02/19 03:27:06;;;;;;;41.63;21.60;;;;;;;;;;5022266;28;20027;-89
2024/02/19 03:29:35;;;;;;;40.65;20.95;;;;;;;;;;5053275;28;20037;-89
2024/02/19 03:32:01;;;;;;;42.00;20.85;;;;;;;;;;5049534;28;20069;-89
2024/02/19 03:34:28;;;;;;;48.88;22.75;;;;;;;;;;5017042;28;20038;-89
2024/02/19 03:36:54;;;;;;;41.70;21.33;;;;;;;;;;5027355;28;20493;-89
2024/02/19 03:42:00;;;;;;;46.28;21.98;;;;;;;;;;5491418;22;20122;-89
2024/02/19 03:44:26;;;;;;;38.78;20.35;;;;;;;;;;5016219;28;20040;-90
2024/02/19 03:46:56;;;;;;;44.90;22.27;;;;;;;;;;5015900;28;20471;-90
2024/02/19 03:49:22;;;;;;;41.50;21.08;;;;;;;;;;5018854;28;20041;-90
2024/02/19 03:51:48;;;;;;;40.97;20.98;;;;;;;;;;5018823;28;20538;-90
2024/02/19 03:54:14;;;;;;;46.35;23.55;;;;;;;;;;5019305;28;20121;-90
2024/02/19 03:56:43;;;;;;;43.50;21.73;;;;;;;;;;5018975;28;20084;-90
2024/02/19 03:59:09;;;;;;;45.78;22.20;;;;;;;;;;5018668;28;20036;-89
2024/02/19 04:01:37;;;;;;;45.90;23.02;;;;;;;;;;5036415;28;20029;-89
2024/02/19 04:04:04;;;;;;;47.28;23.55;;;;;;;;;;5036540;28;20026;-89
2024/02/19 04:06:30;;;;;;;38.60;20.70;;;;;;;;;;5036288;28;20022;-91
2024/02/19 04:08:56;;;;;;;41.05;21.55;;;;;;;;;;5019123;28;20037;-91
2024/02/19 04:11:22;;;;;;;47.20;21.48;;;;;;;;;;5004431;28;20033;-90
2024/02/19 04:13:48;;;;;;;45.08;22.73;;;;;;;;;;4998887;28;20073;-91
2024/02/19 04:16:14;;;;;;;50.45;24.55;;;;;;;;;;5010767;28;20410;-90
2024/02/19 04:18:40;;;;;;;51.25;22.65;;;;;;;;;;5011695;28;20222;-89
2024/02/19 04:21:12;;;;;;;49.72;23.17;;;;;;;;;;5015599;28;20147;-90
2024/02/19 04:23:42;;;;;;;46.30;22.92;;;;;;;;;;5008599;28;20034;-90
2024/02/19 04:26:08;;;;;;;46.72;23.23;;;;;;;;;;4998688;28;20377;-90
2024/02/19 04:28:34;;;;;;;50.25;23.80;;;;;;;;;;5009764;28;20030;-91
2024/02/19 04:31:00;;;;;;;43.67;21.83;;;;;;;;;;5003681;28;20055;-90
2024/02/19 04:33:26;;;;;;;46.60;23.20;;;;;;;;;;5018446;28;20028;-90
2024/02/19 04:35:53;;;;;;;56.70;24.70;;;;;;;;;;5017631;28;20037;-92
2024/02/19 04:38:19;;;;;;;49.03;24.88;;;;;;;;;;5018484;28;20528;-90
2024/02/19 04:40:45;;;;;;;61.53;25.73;;;;;;;;;;5015910;28;20037;-89
2024/02/19 04:43:11;;;;;;;43.05;21.73;;;;;;;;;;4999299;28;20491;-92
2024/02/19 04:45:37;;;;;;;42.80;20.85;;;;;;;;;;4998431;28;20343;-92
2024/02/19 04:48:03;;;;;;;50.28;23.80;;;;;;;;;;4998490;28;20052;-91
2024/02/19 04:50:29;;;;;;;39.25;20.75;;;;;;;;;;5005312;28;20025;-91
2024/02/19 04:52:56;;;;;;;43.80;19.67;;;;;;;;;;5008566;28;20058;-92
2024/02/19 04:55:22;;;;;;;47.50;22.25;;;;;;;;;;4998702;28;20037;-94
2024/02/19 04:57:48;;;;;;;49.78;23.85;;;;;;;;;;4999238;28;20109;-91
2024/02/19 05:00:14;;;;;;;48.80;25.80;;;;;;;;;;4998699;28;20041;-92
2024/02/19 05:02:40;;;;;;;48.97;23.00;;;;;;;;;;5014823;28;20018;-88
2024/02/19 05:05:08;;;;;;;38.67;20.00;;;;;;;;;;5023212;28;20025;-91
2024/02/19 05:07:34;;;;;;;39.40;20.33;;;;;;;;;;5018986;28;20049;-91
2024/02/19 05:10:00;;;;;;;56.35;26.25;;;;;;;;;;5017725;28;20044;-92
2024/02/19 05:12:26;;;;;;;43.45;24.33;;;;;;;;;;5017941;28;20540;-92
2024/02/19 05:14:52;;;;;;;35.33;21.52;;;;;;;;;;5017911;28;20034;-92
2024/02/19 05:17:19;;;;;;;46.72;23.50;;;;;;;;;;5010858;28;20113;-92
2024/02/19 05:19:46;;;;;;;48.05;25.27;;;;;;;;;;5035090;28;20100;-92
2024/02/19 05:25:16;;;;;;;54.88;25.67;;;;;;;;;;5035018;28;20033;-92
2024/02/19 05:27:42;;;;;;;50.00;26.48;;;;;;;;;;5017161;28;20041;-89
2024/02/19 05:30:08;;;;;;;49.53;24.77;;;;;;;;;;5003028;28;20527;-92
2024/02/19 05:32:37;;;;;;;45.85;25.50;;;;;;;;;;4999338;28;20558;-93
2024/02/19 05:35:03;;;;;;;41.15;23.02;;;;;;;;;;5016941;28;20044;-93
2024/02/19 05:37:33;;;;;;;54.05;26.02;;;;;;;;;;5017829;28;20026;-92
2024/02/19 05:40:16;;;;;;;47.50;25.67;;;;;;;;;;5017285;28;20538;-93
2024/02/19 05:42:43;;;;;;;40.28;22.08;;;;;;;;;;5017180;28;20049;-94
2024/02/19 05:45:10;;;;;;;43.60;23.50;;;;;;;;;;5016945;28;20099;-93
2024/02/19 05:47:36;;;;;;;37.17;22.02;;;;;;;;;;5009519;28;20487;-93
2024/02/19 05:50:11;;;;;;;36.47;21.15;;;;;;;;;;4997796;28;20076;-93
2024/02/19 05:52:37;;;;;;;33.30;19.15;;;;;;;;;;4997110;28;20084;-93
2024/02/19 05:55:21;;;;;;;40.63;22.48;;;;;;;;;;4996680;28;20041;-92
2024/02/19 05:57:52;;;;;;;47.65;25.15;;;;;;;;;;4997301;28;20026;-94
2024/02/19 06:00:19;;;;;;;48.20;27.27;;;;;;;;;;5010831;28;20026;-93
2024/02/19 06:02:46;;;;;;;48.17;25.58;;;;;;;;;;5020332;28;20033;-94
2024/02/19 06:05:12;;;;;;;94.55;38.28;;;;;;;;;;4998174;28;20026;-93
2024/02/19 06:07:44;;;;;;;79.00;33.92;;;;;;;;;;4998064;28;20120;-94
2024/02/19 06:10:13;;;;;;;66.53;30.02;;;;;;;;;;4997548;28;20487;-95
2024/02/19 06:12:39;;;;;;;60.55;28.55;;;;;;;;;;4998430;28;20033;-96
2024/02/19 06:15:06;;;;;;;58.67;29.15;;;;;;;;;;5005872;28;20406;-96
2024/02/19 06:17:32;;;;;;;61.83;29.88;;;;;;;;;;5016968;28;20021;-95
2024/02/19 06:19:58;;;;;;;75.03;33.83;;;;;;;;;;5017932;28;20029;-96
2024/02/19 06:22:27;;;;;;;67.60;32.05;;;;;;;;;;5017570;28;20115;-93
2024/02/19 06:24:53;;;;;;;66.90;31.63;;;;;;;;;;5018746;28;20029;-94
2024/02/19 06:27:20;;;;;;;55.90;28.83;;;;;;;;;;5017278;28;20025;-95
2024/02/19 06:29:47;;;;;;;59.78;30.63;;;;;;;;;;4997545;28;20036;-93
2024/02/19 06:32:13;;;;;;;58.10;29.73;;;;;;;;;;4999048;28;20023;-91
2024/02/19 06:34:40;;;;;;;50.10;26.25;;;;;;;;;;4996795;28;20081;-93
2024/02/19 06:37:07;;;;;;;57.70;29.25;;;;;;;;;;4997455;28;20018;-94
2024/02/19 06:39:37;;;;;;;46.92;25.95;;;;;;;;;;4997951;28;20030;-94
2024/02/19 06:42:05;;;;;;;57.85;29.00;;;;;;;;;;4998732;28;20037;-93
2024/02/19 06:44:31;;;;;;;64.07;32.75;;;;;;;;;;4999495;28;20037;-94
2024/02/19 06:46:57;;;;;;;78.82;39.42;;;;;;;;;;5024794;28;20022;-93
2024/02/19 06:49:23;;;;;;;67.13;33.10;;;;;;;;;;5015205;28;20031;-93
2024/02/19 06:51:49;;;;;;;61.95;32.03;;;;;;;;;;4994087;28;20026;-93
2024/02/19 06:54:15;;;;;;;66.07;32.05;;;;;;;;;;4994198;28;20034;-93
2024/02/19 06:56:42;;;;;;;58.38;29.90;;;;;;;;;;4996277;28;20029;-93
2024/02/19 06:59:08;;;;;;;50.92;27.90;;;;;;;;;;4997987;28;20026;-95
2024/02/19 07:01:34;;;;;;;52.72;29.17;;;;;;;;;;5000311;28;20076;-93
2024/02/19 07:04:01;;;;;;;61.45;32.63;;;;;;;;;;5003270;28;20019;-93
2024/02/19 07:06:34;;;;;;;66.90;33.08;;;;;;;;;;5001630;28;20027;-93
2024/02/19 07:09:00;;;;;;;59.53;32.50;;;;;;;;;;4999909;28;20113;-93
2024/02/19 07:11:26;;;;;;;58.08;30.63;;;;;;;;;;5004456;28;20203;-94
2024/02/19 07:13:55;;;;;;;51.40;28.80;;;;;;;;;;5012404;28;20407;-92
2024/02/19 07:16:24;;;;;;;50.40;28.50;;;;;;;;;;5001752;28;20033;-91
2024/02/19 07:18:50;;;;;;;43.80;25.88;;;;;;;;;;5008637;28;20056;-91
2024/02/19 07:21:17;;;;;;;50.47;28.23;;;;;;;;;;5018031;28;20493;-92
2024/02/19 07:23:44;;;;;;;47.00;26.73;;;;;;;;;;5007152;28;20031;-92
2024/02/19 07:26:14;;;;;;;49.85;28.17;;;;;;;;;;5009486;28;20553;-95
2024/02/19 07:28:45;;;;;;;50.50;29.67;;;;;;;;;;5010621;28;20081;-94
2024/02/19 07:31:12;;;;;;;50.00;30.30;;;;;;;;;;4999698;28;20400;-95
2024/02/19 07:33:38;;;;;;;62.05;33.03;;;;;;;;;;4991474;28;20023;-94
2024/02/19 07:36:04;;;;;;;58.13;32.47;;;;;;;;;;5005127;28;20038;-94
2024/02/19 07:38:33;;;;;;;52.88;29.70;;;;;;;;;;5000139;28;20066;-93
2024/02/19 07:40:59;;;;;;;59.90;31.80;;;;;;;;;;4998833;28;20050;-95
2024/02/19 07:43:25;;;;;;;42.90;26.95;;;;;;;;;;5005681;28;20883;-93
2024/02/19 07:45:56;;;;;;;47.33;26.52;;;;;;;;;;5011404;28;20471;-96
2024/02/19 07:48:22;;;;;;;50.42;29.25;;;;;;;;;;4998543;28;20060;-95
2024/02/19 07:50:48;;;;;;;43.95;26.80;;;;;;;;;;5016155;28;20030;-95
2024/02/19 07:53:14;;;;;;;48.92;28.48;;;;;;;;;;5019071;28;20487;-95
2024/02/19 07:55:53;;;;;;;42.58;24.67;;;;;;;;;;5019503;28;20038;-96
2024/02/19 07:58:23;;;;;;;43.25;26.20;;;;;;;;;;5012288;28;20109;-96
2024/02/19 08:00:55;;;;;;;36.83;23.30;;;;;;;;;;5082723;22;20107;-96
2024/02/19 08:03:27;;;;;;;43.95;25.85;;;;;;;;;;5025000;28;20105;-95
2024/02/19 08:09:04;;;;;;;43.85;26.80;;;;;;;;;;4999196;28;20048;-96
2024/02/19 08:14:40;;;;;;;36.65;23.00;;;;;;;;;;5062610;28;20067;-96
2024/02/19 08:17:06;;;;;;;36.47;23.30;;;;;;;;;;5065827;28;20025;-96
2024/02/19 08:19:39;;;;;;;42.13;25.45;;;;;;;;;;5066118;28;20448;-95
2024/02/19 08:22:16;;;;;;;38.28;24.10;;;;;;;;;;5065288;28;20036;-96
2024/02/19 08:24:42;;;;;;;38.17;22.15;;;;;;;;;;5069980;28;20032;-95
2024/02/19 08:27:16;;;;;;;38.70;24.00;;;;;;;;;;5080937;28;20028;-96
2024/02/19 08:29:42;;;;;;;35.13;22.63;;;;;;;;;;5079134;28;20040;-95
2024/02/19 08:32:14;;;;;;;39.67;24.88;;;;;;;;;;5100388;28;20076;-96
2024/02/19 08:34:44;;;;;;;39.90;24.38;;;;;;;;;;5063515;28;20095;-93
2024/02/19 08:37:10;;;;;;;43.63;26.23;;;;;;;;;;5045315;28;20115;-96
2024/02/19 08:39:36;;;;;;;42.05;25.85;;;;;;;;;;5060960;28;20025;-96
2024/02/19 08:42:03;;;;;;;41.13;26.00;;;;;;;;;;5065179;28;20033;-96
2024/02/19 08:44:32;;;;;;;43.85;26.77;;;;;;;;;;5054372;28;20033;-96
2024/02/19 08:50:40;;;;;;;;;;;;;;;;;;;;;
2024/02/19 08:53:29;;;;;;;42.28;25.58;;;;;;;;;;5030879;28;20050;-96
2024/02/19 08:56:01;;;;;;;44.85;26.25;;;;;;;;;;5058546;28;20127;-96
2024/02/19 08:58:31;;;;;;;41.35;25.15;;;;;;;;;;5066339;28;20037;-96
2024/02/19 09:00:57;;;;;;;36.85;24.17;;;;;;;;;;5060130;28;20162;-95
2024/02/19 09:03:25;;;;;;;43.83;27.00;;;;;;;;;;5060664;28;20501;-96
2024/02/19 09:05:51;;;;;;;42.08;27.38;;;;;;;;;;5049616;28;20086;-96
2024/02/19 09:11:23;;;;;;;43.00;25.10;;;;;;;;;;5082234;28;20082;-96
2024/02/19 09:13:50;;;;;;;41.67;26.35;;;;;;;;;;5059728;28;20274;-96
2024/02/19 09:16:17;;;;;;;41.40;26.70;;;;;;;;;;5044939;28;20569;-96
2024/02/19 09:18:43;;;;;;;39.58;26.92;;;;;;;;;;5049736;28;20027;-96
2024/02/19 09:21:17;;;;;;;43.35;27.02;;;;;;;;;;5041151;28;20522;-94
2024/02/19 09:23:46;;;;;;;37.25;23.55;;;;;;;;;;5040392;28;20025;-95
2024/02/19 09:26:13;;;;;;;35.97;23.58;;;;;;;;;;5055084;28;20033;-94
2024/02/19 09:28:40;;;;;;;32.95;21.58;;;;;;;;;;5059305;28;20028;-94
2024/02/19 09:31:06;;;;;;;34.22;24.25;;;;;;;;;;5058801;28;20090;-95
2024/02/19 09:33:33;;;;;;;32.20;22.65;;;;;;;;;;5061419;28;20031;-94
2024/02/19 09:36:00;;;;;;;32.60;22.63;;;;;;;;;;5048620;28;20031;-93
2024/02/19 09:39:11;;;;;;;34.05;23.10;;;;;;;;;;5056542;28;20029;-95
2024/02/19 09:41:42;;;;;;;35.00;23.98;;;;;;;;;;5031258;28;20048;-96
2024/02/19 09:44:17;;;;;;;38.05;24.45;;;;;;;;;;5042869;28;20029;-96
2024/02/19 09:46:53;;;;;;;34.95;24.40;;;;;;;;;;5044769;28;20033;-96
2024/02/19 09:49:26;;;;;;;36.08;24.77;;;;;;;;;;5066178;28;20453;-96
2024/02/19 09:52:11;;;;;;;43.30;26.58;;;;;;;;;;5037925;28;20101;-96
2024/02/19 09:54:41;;;;;;;38.47;24.85;;;;;;;;;;5047212;28;20055;-96
2024/02/19 09:57:16;;;;;;;39.25;25.02;;;;;;;;;;5058834;28;20044;-96
2024/02/19 10:02:20;;;;;;;35.38;23.55;;;;;;;;;;5136653;22;20119;-91
2024/02/19 10:04:49;;;;;;;35.17;23.23;;;;;;;;;;5020136;28;20134;-95
2024/02/19 10:07:21;;;;;;;38.50;24.10;;;;;;;;;;5037228;28;20060;-96
2024/02/19 10:10:10;;;;;;;38.30;24.67;;;;;;;;;;5034451;28;20033;-96
2024/02/19 10:12:41;;;;;;;40.22;24.42;;;;;;;;;;5028298;28;20063;-95
2024/02/19 10:15:08;;;;;;;38.15;25.67;;;;;;;;;;5070103;28;20033;-94
2024/02/19 10:17:57;;;;;;;38.05;24.83;;;;;;;;;;5040237;28;20025;-96
2024/02/19 10:26:11;;;;;;;40.10;25.05;;;;;;;;;;5364043;22;20049;-96
2024/02/19 10:31:37;;;;;;;43.00;27.35;;;;;;;;;;5052524;28;20061;-95
2024/02/19 10:34:03;;;;;;;43.65;28.40;;;;;;;;;;5040487;28;20029;-93
2024/02/19 10:36:30;;;;;;;38.78;26.02;;;;;;;;;;5045437;28;20056;-95
2024/02/19 10:39:00;;;;;;;42.25;27.25;;;;;;;;;;5030910;28;20010;-94
2024/02/19 10:42:47;;;;;;;;;;;;;;;;;;;;;
2024/02/19 10:51:34;;;;;;;44.55;28.70;;;;;;;;;;5503433;23;20080;-91
2024/02/19 10:54:12;;;;;;;46.05;28.67;;;;;;;;;;5034660;28;20030;-93
2024/02/19 10:57:08;;;;;;;;;;;;;;;;;;;;;
2024/02/19 11:43:47;;;;;;;44.92;29.75;;;;;;;;;;5021888;28;20140;-95
2024/02/19 11:46:26;;;;;;;35.50;25.05;;;;;;;;;;5018112;28;20048;-96
2024/02/19 11:48:54;;;;;;;37.97;25.85;;;;;;;;;;5019939;28;20495;-89
2024/02/19 11:51:44;;;;;;;42.35;28.52;;;;;;;;;;5020367;28;20113;-95
2024/02/19 12:25:54;;;;;;;;;;;;;;;;;;;;;
2024/02/19 12:34:21;;;;;;;37.08;25.58;;;;;;;;;;5714200;23;20120;-96
2024/02/19 12:36:49;;;;;;;38.88;26.50;;;;;;;;;;5011716;28;20034;-96
2024/02/19 12:39:40;;;;;;;33.95;24.08;;;;;;;;;;5014652;28;20041;-96
2024/02/19 12:42:15;;;;;;;32.17;24.00;;;;;;;;;;5210079;23;20134;-96
2024/02/19 12:44:50;;;;;;;27.45;20.77;;;;;;;;;;5029138;28;20041;-96
2024/02/19 12:47:24;;;;;;;26.52;18.15;;;;;;;;;;5029164;28;20041;-95
2024/02/19 12:56:15;;;;;;;;;;;;;;;;;;;;;
2024/02/19 13:02:30;;;;;;;10.32;7.95;;;;;;;;;;4913898;29;20104;-96
2024/02/19 13:11:21;;;;;;;11.47;8.63;;;;;;;;;;4933985;29;20072;-96
2024/02/19 13:35:29;;;;;;;7.28;5.65;;;;;;;;;;5162435;22;20080;-96
2024/02/19 13:37:45;;;;;;;6.05;4.43;;;;;;;;;;5022541;28;20058;-95
2024/02/19 13:53:25;;;;;;;7.03;6.28;;;;;;;;;;5092689;22;20042;-96
2024/02/19 13:56:02;;;;;;;6.65;6.05;;;;;;;;;;5033343;28;20037;-96
2024/02/19 13:58:34;;;;;;;5.60;5.05;;;;;;;;;;5044945;28;20033;-96
2024/02/19 14:07:47;;;;;;;3.85;3.47;;;;;;;;;;4952953;29;20050;-93
2024/02/19 14:10:57;;;;;;;4.18;3.78;;;;;;;;;;4961433;28;20500;-96
2024/02/19 14:14:07;;;;;;;4.22;3.25;;;;;;;;;;4968479;28;20031;-96
2024/02/19 14:17:42;;;;;;;3.38;2.28;;;;;;;;;;4957836;29;20078;-96
2024/02/19 14:21:01;;;;;;;4.78;2.22;;;;;;;;;;4941704;29;20032;-96
2024/02/19 14:24:18;;;;;;;3.10;2.58;;;;;;;;;;4982239;28;20011;-96
2024/02/19 14:26:46;;;;;;;5.70;5.18;;;;;;;;;;5059499;28;20021;-96
2024/02/19 14:29:13;;;;;;;4.03;3.72;;;;;;;;;;5039916;28;20108;-93
2024/02/19 14:31:39;;;;;;;2.42;2.22;;;;;;;;;;5036415;28;20105;-92
2024/02/19 14:34:06;;;;;;;2.55;2.15;;;;;;;;;;5035916;28;20022;-96
2024/02/19 14:36:33;;;;;;;3.60;2.35;;;;;;;;;;5036615;28;20556;-94
2024/02/19 14:38:59;;;;;;;2.15;1.65;;;;;;;;;;5037005;28;20371;-94
2024/02/19 14:41:26;;;;;;;2.58;2.38;;;;;;;;;;5036710;28;20504;-96
2024/02/19 14:43:52;;;;;;;2.50;2.30;;;;;;;;;;5036885;28;20028;-94
2024/02/19 14:46:18;;;;;;;3.35;3.05;;;;;;;;;;5022674;28;20466;-96
2024/02/19 14:48:45;;;;;;;3.78;2.78;;;;;;;;;;5016846;28;20029;-96
2024/02/19 14:51:11;;;;;;;3.58;2.20;;;;;;;;;;5016521;28;20022;-93
2024/02/19 14:53:41;;;;;;;3.15;2.20;;;;;;;;;;5032253;28;20037;-96
2024/02/19 14:56:08;;;;;;;4.03;3.33;;;;;;;;;;4997194;28;20045;-95
2024/02/19 14:58:36;;;;;;;8.90;1.75;;;;;;;;;;4997325;28;20479;-96
2024/02/19 15:01:02;;;;;;;3.95;2.47;;;;;;;;;;4998315;28;20376;-94
2024/02/19 15:03:29;;;;;;;5.68;2.92;;;;;;;;;;4999052;28;20034;-96
2024/02/19 15:05:56;;;;;;;4.70;3.25;;;;;;;;;;5001802;28;20483;-96
2024/02/19 15:08:22;;;;;;;3.75;3.35;;;;;;;;;;5023688;28;20040;-96
2024/02/19 15:10:51;;;;;;;4.57;2.72;;;;;;;;;;5037786;28;20029;-96
2024/02/19 15:13:24;;;;;;;3.85;2.95;;;;;;;;;;5038794;28;20029;-95
2024/02/19 15:15:51;;;;;;;2.50;1.70;;;;;;;;;;5022569;28;20128;-94
2024/02/19 15:18:17;;;;;;;2.85;2.65;;;;;;;;;;5003296;28;20029;-96
2024/02/19 15:20:44;;;;;;;2.80;2.25;;;;;;;;;;5005330;28;20075;-92
2024/02/19 15:23:11;;;;;;;2.22;2.00;;;;;;;;;;5008030;28;20060;-96
2024/02/19 15:25:39;;;;;;;2.83;2.63;;;;;;;;;;5041291;28;20027;-92
2024/02/19 15:28:06;;;;;;;3.95;1.60;;;;;;;;;;5025517;28;20041;-89
2024/02/19 15:30:32;;;;;;;1.63;1.52;;;;;;;;;;5011814;28;20492;-90
2024/02/19 15:32:58;;;;;;;3.03;2.17;;;;;;;;;;5011114;28;20037;-96
2024/02/19 15:35:26;;;;;;;2.28;1.88;;;;;;;;;;5018962;28;20042;-96
2024/02/19 15:37:54;;;;;;;3.17;2.45;;;;;;;;;;5048925;28;20041;-94
2024/02/19 15:43:37;;;;;;;3.88;1.80;;;;;;;;;;5067861;28;20106;-96
2024/02/19 15:46:39;;;;;;;;;;;;;;;;;;;;;
2024/02/19 15:49:23;;;;;;;4.35;2.95;;;;;;;;;;5430420;22;20067;31
2024/02/19 15:52:09;;;;;;;4.03;1.30;;;;;;;;;;4990227;28;20055;-96
2024/02/19 15:54:41;;;;;;;2.03;1.52;;;;;;;;;;4982251;28;20034;-96
2024/02/19 15:57:24;;;;;;;3.80;1.83;;;;;;;;;;4996263;28;20093;-95
2024/02/19 16:02:40;;;;;;;1.92;1.63;;;;;;;;;;4997339;28;20050;-91
2024/02/19 16:05:13;;;;;;;2.60;1.73;;;;;;;;;;4989930;28;20129;-92
2024/02/19 16:07:59;;;;;;;1.65;1.10;;;;;;;;;;4983912;28;20031;-96
2024/02/19 16:10:48;;;;;;;4.43;1.50;;;;;;;;;;4976076;28;20091;-96
2024/02/19 16:13:16;;;;;;;1.80;1.25;;;;;;;;;;4995795;28;20035;-96
2024/02/19 16:15:44;;;;;;;1.80;1.30;;;;;;;;;;4997075;28;20045;-95
2024/02/19 16:18:17;;;;;;;2.80;2.13;;;;;;;;;;4992699;28;20113;-97
2024/02/19 16:20:44;;;;;;;4.28;3.00;;;;;;;;;;4981355;28;20031;-96
2024/02/19 16:23:10;;;;;;;4.32;2.50;;;;;;;;;;4984917;28;20038;-94
2024/02/19 16:25:36;;;;;;;3.38;2.25;;;;;;;;;;4977606;28;20476;-95
2024/02/19 16:28:02;;;;;;;3.63;2.10;;;;;;;;;;4980569;28;20046;-96
2024/02/19 16:30:52;;;;;;;3.40;2.10;;;;;;;;;;4988465;28;20045;-95
2024/02/19 16:33:28;;;;;;;2.78;2.03;;;;;;;;;;5001428;28;20034;-96
2024/02/19 16:35:56;;;;;;;3.83;2.92;;;;;;;;;;4981432;28;20035;-96
2024/02/19 16:38:51;;;;;;;3.10;1.67;;;;;;;;;;4987401;28;20023;-96
2024/02/19 16:44:32;;;;;;;;;;;;;;;;;;4973977;28;20033;-95
2024/02/19 16:49:36;;;;;;;3.88;3.42;;;;;;;;;;5089383;22;20119;-96
2024/02/19 16:52:15;;;;;;;;;;;;;;;;;;;;;
2024/02/19 17:02:38;;;;;;;4.35;2.53;;;;;;;;;;5200859;23;20045;-95
2024/02/19 17:16:56;;;;;;;4.60;3.13;;;;;;;;;;5250287;22;20497;-93
2024/02/19 17:19:43;;;;;;;3.90;2.00;;;;;;;;;;5046319;28;20033;-94
2024/02/19 17:25:27;;;;;;;3.05;1.85;;;;;;;;;;5073019;28;20048;-96
2024/02/19 17:28:26;;;;;;;2.85;1.67;;;;;;;;;;5066740;28;20036;-96
2024/02/19 17:31:30;;;;;;;3.83;2.58;;;;;;;;;;5036904;28;20029;-96
2024/02/19 17:34:31;;;;;;;5.45;1.95;;;;;;;;;;5054706;28;20029;-96
2024/02/19 17:37:20;;;;;;;4.07;1.90;;;;;;;;;;4981548;28;20031;-96
2024/02/19 17:39:46;;;;;;;3.53;3.08;;;;;;;;;;4964790;28;20043;-94
2024/02/19 17:42:14;;;;;;;3.78;3.08;;;;;;;;;;4970367;28;20030;-95
2024/02/19 17:47:53;;;;;;;3.67;2.78;;;;;;;;;;5053183;28;20088;-95
2024/02/19 17:50:46;;;;;;;4.75;2.95;;;;;;;;;;5062209;28;20116;-93
2024/02/19 17:53:15;;;;;;;4.68;2.60;;;;;;;;;;5064572;28;20044;-95
2024/02/19 17:55:45;;;;;;;3.10;2.08;;;;;;;;;;5061278;23;20072;-96
2024/02/19 17:58:13;;;;;;;2.05;1.17;;;;;;;;;;5019558;28;20033;-95
2024/02/19 18:00:40;;;;;;;2.30;1.17;;;;;;;;;;5014798;28;20093;-93
2024/02/19 18:03:07;;;;;;;1.92;1.30;;;;;;;;;;5015401;28;20064;-95
2024/02/19 18:05:33;;;;;;;5.07;1.30;;;;;;;;;;5018090;28;20173;-96
2024/02/19 18:07:59;;;;;;;3.45;1.30;;;;;;;;;;5017615;28;20527;-96
2024/02/19 18:10:26;;;;;;;2.42;1.20;;;;;;;;;;4998418;28;20399;-92
2024/02/19 18:12:53;;;;;;;3.15;2.10;;;;;;;;;;5015007;28;20069;-96
2024/02/19 18:15:27;;;;;;;3.25;2.47;;;;;;;;;;5016606;28;20042;-96
2024/02/19 18:18:08;;;;;;;6.82;2.78;;;;;;;;;;5018795;28;20021;-96
2024/02/19 18:20:37;;;;;;;5.65;3.75;;;;;;;;;;5021059;28;20085;-94
2024/02/19 18:23:04;;;;;;;6.28;3.47;;;;;;;;;;5022631;28;20037;-92